createdAt,value
2017-03-17T00:00:18.842Z,99.99
2017-03-17T00:01:18.826Z,99.99
2017-03-17T00:02:19.127Z,99.99
2017-03-17T00:03:19.114Z,99.99
2017-03-17T00:04:19.098Z,99.99
2017-03-17T00:05:19.085Z,99.99
2017-03-17T00:06:18.756Z,99.99
2017-03-17T00:07:19.058Z,99.99
2017-03-17T00:08:19.044Z,99.99
2017-03-17T00:09:18.714Z,99.99
2017-03-17T00:10:19.016Z,99.99
2017-03-17T00:11:19.002Z,99.99
2017-03-17T00:12:18.992Z,99.99
2017-03-17T00:13:18.661Z,99.99
2017-03-17T00:14:18.962Z,99.99
2017-03-17T00:15:18.953Z,99.99
2017-03-17T00:16:18.935Z,99.99
2017-03-17T00:17:18.920Z,99.99
2017-03-17T00:18:18.909Z,99.99
2017-03-17T00:19:18.892Z,99.99
2017-03-17T00:20:18.881Z,99.99
2017-03-17T00:21:18.867Z,99.99
2017-03-17T00:22:18.854Z,99.99
2017-03-17T00:23:18.838Z,99.99
2017-03-17T00:24:18.828Z,99.99
2017-03-17T00:25:18.812Z,99.99
2017-03-17T00:26:18.484Z,99.99
2017-03-17T00:27:18.472Z,99.99
2017-03-17T00:28:18.772Z,99.99
2017-03-17T00:29:18.756Z,99.99
2017-03-17T00:30:18.747Z,99.99
2017-03-17T00:31:18.730Z,99.99
2017-03-17T00:32:18.408Z,99.99
2017-03-17T00:33:18.388Z,99.99
2017-03-17T00:34:18.689Z,99.99
2017-03-17T00:35:18.676Z,99.99
2017-03-17T00:36:18.662Z,99.99
2017-03-17T00:37:18.332Z,99.99
2017-03-17T00:38:18.635Z,99.99
2017-03-17T00:39:18.621Z,99.99
2017-03-17T00:40:18.291Z,99.99
2017-03-17T00:41:18.597Z,99.99
2017-03-17T00:42:18.579Z,99.99
2017-03-17T00:43:18.567Z,99.99
2017-03-17T00:44:18.553Z,99.99
2017-03-17T00:45:18.539Z,99.99
2017-03-17T00:46:18.525Z,99.99
2017-03-17T00:47:18.511Z,99.99
2017-03-17T00:48:18.498Z,99.99
2017-03-17T00:49:18.485Z,99.99
2017-03-17T00:50:18.471Z,99.99
2017-03-17T00:51:18.459Z,99.99
2017-03-17T00:52:18.447Z,99.99
2017-03-17T00:53:18.118Z,99.99
2017-03-17T00:54:18.415Z,99.99
2017-03-17T00:55:18.407Z,99.99
2017-03-17T00:56:18.392Z,99.99
2017-03-17T00:57:18.376Z,99.99
2017-03-17T00:58:18.366Z,99.99
2017-03-17T00:59:18.351Z,99.99
2017-03-17T01:00:18.340Z,99.99
2017-03-17T01:01:18.324Z,99.99
2017-03-17T01:02:18.312Z,99.99
2017-03-17T01:03:18.301Z,99.99
2017-03-17T01:04:18.284Z,99.99
2017-03-17T01:05:18.269Z,99.99
2017-03-17T01:06:18.258Z,99.99
2017-03-17T01:07:17.929Z,99.99
2017-03-17T01:08:18.229Z,99.99
2017-03-17T01:09:18.217Z,99.99
2017-03-17T01:10:18.205Z,99.99
2017-03-17T01:11:18.189Z,99.99
2017-03-17T01:12:18.175Z,99.99
2017-03-17T01:13:18.200Z,99.99
2017-03-17T01:14:18.155Z,99.99
2017-03-17T01:15:18.137Z,99.99
2017-03-17T01:16:18.124Z,99.99
2017-03-17T01:17:18.110Z,99.99
2017-03-17T01:18:18.098Z,99.99
2017-03-17T01:19:18.087Z,99.99
2017-03-17T01:20:18.070Z,99.99
2017-03-17T01:21:18.055Z,99.99
2017-03-17T01:22:18.041Z,99.99
2017-03-17T01:23:18.029Z,99.99
2017-03-17T01:24:17.700Z,99.99
2017-03-17T01:25:18.003Z,99.99
2017-03-17T01:26:17.987Z,99.99
2017-03-17T01:27:17.974Z,99.99
2017-03-17T01:28:17.962Z,99.99
2017-03-17T01:29:17.951Z,99.99
2017-03-17T01:30:17.618Z,99.99
2017-03-17T01:31:17.921Z,99.99
2017-03-17T01:32:17.906Z,99.99
2017-03-17T01:33:17.896Z,99.99
2017-03-17T01:34:17.879Z,99.99
2017-03-17T01:35:17.868Z,99.99
2017-03-17T01:36:17.854Z,99.99
2017-03-17T01:37:17.842Z,99.99
2017-03-17T01:38:17.830Z,99.99
2017-03-17T01:39:17.499Z,99.99
2017-03-17T01:40:17.801Z,99.99
2017-03-17T01:41:17.788Z,99.99
2017-03-17T01:42:17.777Z,99.99
2017-03-17T01:43:17.451Z,99.99
2017-03-17T01:44:17.748Z,99.11
2017-03-17T01:45:17.738Z,97.78
2017-03-17T01:46:17.726Z,97.88
2017-03-17T01:47:17.714Z,96.74
2017-03-17T01:48:17.699Z,96.45
2017-03-17T01:49:17.684Z,93.8
2017-03-17T01:50:17.674Z,91.42
2017-03-17T01:51:17.664Z,90.47
2017-03-17T01:52:17.648Z,89.9
2017-03-17T01:53:17.636Z,87.15
2017-03-17T01:54:17.625Z,86.34
2017-03-17T01:55:17.614Z,85.39
2017-03-17T01:56:17.626Z,85.77
2017-03-17T01:57:17.590Z,84.34
2017-03-17T01:58:17.583Z,85.68
2017-03-17T01:59:17.566Z,84.44
2017-03-17T02:00:17.554Z,84.49
2017-03-17T02:01:17.540Z,83.36
2017-03-17T02:02:17.527Z,81.74
2017-03-17T02:03:17.515Z,81.12
2017-03-17T02:04:17.507Z,80.55
2017-03-17T02:05:17.491Z,81.21
2017-03-17T02:06:17.479Z,80.79
2017-03-17T02:07:17.152Z,81.68
2017-03-17T02:08:17.455Z,82.73
2017-03-17T02:09:17.152Z,81.3
2017-03-17T02:10:17.431Z,82.16
2017-03-17T02:11:17.418Z,81.21
2017-03-17T02:12:17.409Z,80.98
2017-03-17T02:13:17.398Z,80.41
2017-03-17T02:14:17.385Z,80.98
2017-03-17T02:15:17.373Z,82.59
2017-03-17T02:16:17.361Z,80.98
2017-03-17T02:17:17.373Z,79.74
2017-03-17T02:18:17.336Z,78.89
2017-03-17T02:19:17.327Z,79.36
2017-03-17T02:20:17.316Z,80.13
2017-03-17T02:21:16.986Z,80.32
2017-03-17T02:22:17.289Z,80.69
2017-03-17T02:23:17.277Z,79.74
2017-03-17T02:24:19.295Z,79.84
2017-03-17T02:25:16.942Z,79.74
2017-03-17T02:26:17.248Z,78.99
2017-03-17T02:27:17.234Z,77.75
2017-03-17T02:28:17.220Z,76.32
2017-03-17T02:29:17.208Z,75.09
2017-03-17T02:30:17.199Z,74.37
2017-03-17T02:31:17.185Z,73.71
2017-03-17T02:32:16.858Z,74.24
2017-03-17T02:33:16.847Z,73.9
2017-03-17T02:34:17.151Z,73.42
2017-03-17T02:35:17.136Z,73.04
2017-03-17T02:36:17.129Z,74.56
2017-03-17T02:37:17.113Z,73.99
2017-03-17T02:38:17.111Z,73.23
2017-03-17T02:39:17.092Z,73.99
2017-03-17T02:40:17.080Z,73.99
2017-03-17T02:41:17.068Z,73.99
2017-03-17T02:42:17.056Z,73.67
2017-03-17T02:43:17.049Z,73.96
2017-03-17T02:44:17.036Z,74.62
2017-03-17T02:45:17.020Z,75.28
2017-03-17T02:46:17.014Z,75.19
2017-03-17T02:47:17.000Z,74.62
2017-03-17T02:48:16.988Z,73.23
2017-03-17T02:49:16.976Z,73.33
2017-03-17T02:50:16.965Z,74.66
2017-03-17T02:51:16.953Z,72.85
2017-03-17T02:52:16.942Z,72.28
2017-03-17T02:53:16.931Z,71.71
2017-03-17T02:54:16.920Z,71.33
2017-03-17T02:55:16.906Z,70.29
2017-03-17T02:56:16.902Z,71.33
2017-03-17T02:57:16.882Z,72.19
2017-03-17T02:58:16.876Z,71.04
2017-03-17T02:59:16.860Z,71.23
2017-03-17T03:00:16.534Z,69.62
2017-03-17T03:01:16.834Z,70.19
2017-03-17T03:02:16.830Z,69.53
2017-03-17T03:03:16.814Z,68.77
2017-03-17T03:04:16.803Z,68.58
2017-03-17T03:05:16.795Z,68.52
2017-03-17T03:06:16.780Z,67.57
2017-03-17T03:07:16.769Z,68.42
2017-03-17T03:08:16.757Z,67
2017-03-17T03:09:16.745Z,67
2017-03-17T03:10:16.735Z,66.8
2017-03-17T03:11:16.724Z,67
2017-03-17T03:12:16.711Z,68.04
2017-03-17T03:13:16.702Z,67.47
2017-03-17T03:14:16.377Z,67.09
2017-03-17T03:15:16.683Z,66.52
2017-03-17T03:16:16.667Z,67.38
2017-03-17T03:17:16.654Z,67.57
2017-03-17T03:18:16.330Z,67.09
2017-03-17T03:19:16.636Z,69.09
2017-03-17T03:20:16.622Z,69.37
2017-03-17T03:21:16.613Z,68.99
2017-03-17T03:22:16.601Z,68.99
2017-03-17T03:23:16.591Z,68.86
2017-03-17T03:24:16.577Z,68.86
2017-03-17T03:25:16.566Z,68.77
2017-03-17T03:26:16.556Z,70
2017-03-17T03:27:16.572Z,70.38
2017-03-17T03:28:16.536Z,69.62
2017-03-17T03:29:16.522Z,70
2017-03-17T03:30:16.510Z,70.76
2017-03-17T03:31:16.502Z,72.47
2017-03-17T03:32:16.491Z,72.56
2017-03-17T03:33:16.480Z,72.19
2017-03-17T03:34:16.470Z,72
2017-03-17T03:35:16.455Z,72.19
2017-03-17T03:36:16.131Z,72.38
2017-03-17T03:37:16.118Z,72.66
2017-03-17T03:38:16.419Z,73.23
2017-03-17T03:39:16.412Z,72.38
2017-03-17T03:40:16.399Z,72.38
2017-03-17T03:41:16.387Z,72.38
2017-03-17T03:42:16.377Z,72.28
2017-03-17T03:43:16.367Z,72.85
2017-03-17T03:44:16.353Z,72.38
2017-03-17T03:45:16.344Z,73.42
2017-03-17T03:46:16.331Z,72.66
2017-03-17T03:47:16.319Z,72.38
2017-03-17T03:48:16.310Z,71.9
2017-03-17T03:49:16.296Z,72.47
2017-03-17T03:50:16.287Z,73.71
2017-03-17T03:51:16.275Z,74.37
2017-03-17T03:52:16.263Z,72.19
2017-03-17T03:53:16.257Z,71.52
2017-03-17T03:54:16.241Z,72.19
2017-03-17T03:55:16.231Z,72.38
2017-03-17T03:56:16.221Z,71.9
2017-03-17T03:57:16.205Z,72.66
2017-03-17T03:58:16.199Z,73.52
2017-03-17T03:59:16.189Z,73.42
2017-03-17T04:00:16.173Z,72.95
2017-03-17T04:01:16.164Z,72
2017-03-17T04:02:16.157Z,71.71
2017-03-17T04:03:15.827Z,71.33
2017-03-17T04:04:16.134Z,71.43
2017-03-17T04:05:16.116Z,71.71
2017-03-17T04:06:16.110Z,71.43
2017-03-17T04:07:16.117Z,71.62
2017-03-17T04:08:16.085Z,71.52
2017-03-17T04:09:16.075Z,72.19
2017-03-17T04:10:16.063Z,72.19
2017-03-17T04:11:16.050Z,72.38
2017-03-17T04:12:16.044Z,73.04
2017-03-17T04:13:16.028Z,72.47
2017-03-17T04:14:16.019Z,74.08
2017-03-17T04:15:16.006Z,74.18
2017-03-17T04:16:15.996Z,74.37
2017-03-17T04:17:15.986Z,75.23
2017-03-17T04:18:15.971Z,75.13
2017-03-17T04:19:15.963Z,74.66
2017-03-17T04:20:15.952Z,74.56
2017-03-17T04:21:15.939Z,75.42
2017-03-17T04:22:15.929Z,75.57
2017-03-17T04:23:15.921Z,77.09
2017-03-17T04:24:15.908Z,77.56
2017-03-17T04:25:15.896Z,77.75
2017-03-17T04:26:15.886Z,77.84
2017-03-17T04:27:15.871Z,78.61
2017-03-17T04:28:15.861Z,78.8
2017-03-17T04:29:15.851Z,79.46
2017-03-17T04:30:15.839Z,80.22
2017-03-17T04:31:15.824Z,80.03
2017-03-17T04:32:15.814Z,80.03
2017-03-17T04:33:15.807Z,80.13
2017-03-17T04:34:15.793Z,80.03
2017-03-17T04:35:15.781Z,79.94
2017-03-17T04:36:15.768Z,80.41
2017-03-17T04:37:15.759Z,81.65
2017-03-17T04:38:15.746Z,82.31
2017-03-17T04:39:15.736Z,82.12
2017-03-17T04:40:15.406Z,82.03
2017-03-17T04:41:15.709Z,81.98
2017-03-17T04:42:15.699Z,84.21
2017-03-17T04:43:15.691Z,83.26
2017-03-17T04:44:15.675Z,82.31
2017-03-17T04:45:15.663Z,81.84
2017-03-17T04:46:15.657Z,81.93
2017-03-17T04:47:15.642Z,82.59
2017-03-17T04:48:15.629Z,82.31
2017-03-17T04:49:15.304Z,82.12
2017-03-17T04:50:15.606Z,82.31
2017-03-17T04:51:15.282Z,82.03
2017-03-17T04:52:15.581Z,82.12
2017-03-17T04:53:15.572Z,83.45
2017-03-17T04:54:15.559Z,83.16
2017-03-17T04:55:15.549Z,83.54
2017-03-17T04:56:15.534Z,83.64
2017-03-17T04:57:15.210Z,84.49
2017-03-17T04:58:15.513Z,84.78
2017-03-17T04:59:15.503Z,83.97
2017-03-17T05:00:15.493Z,85.21
2017-03-17T05:01:15.162Z,85.02
2017-03-17T05:02:15.469Z,85.68
2017-03-17T05:03:15.453Z,87.77
2017-03-17T05:04:15.443Z,88.62
2017-03-17T05:05:15.428Z,89.67
2017-03-17T05:06:15.418Z,89.95
2017-03-17T05:07:15.403Z,89.67
2017-03-17T05:08:15.393Z,89.58
2017-03-17T05:09:15.380Z,88.91
2017-03-17T05:10:15.372Z,87.58
2017-03-17T05:11:15.359Z,86.63
2017-03-17T05:12:15.349Z,85.11
2017-03-17T05:13:15.021Z,84.64
2017-03-17T05:14:15.325Z,84.78
2017-03-17T05:15:15.311Z,84.4
2017-03-17T05:16:15.300Z,83.26
2017-03-17T05:17:15.288Z,82.78
2017-03-17T05:18:15.277Z,82.4
2017-03-17T05:19:15.265Z,82.12
2017-03-17T05:20:15.251Z,82.21
2017-03-17T05:21:15.240Z,82.31
2017-03-17T05:22:15.226Z,82.59
2017-03-17T05:23:15.218Z,83.73
2017-03-17T05:24:15.207Z,83.83
2017-03-17T05:25:15.191Z,84.68
2017-03-17T05:26:14.867Z,84.49
2017-03-17T05:27:15.166Z,86.3
2017-03-17T05:28:15.157Z,87.11
2017-03-17T05:29:15.148Z,86.16
2017-03-17T05:30:15.131Z,83.88
2017-03-17T05:31:15.124Z,83.5
2017-03-17T05:32:15.109Z,83.36
2017-03-17T05:33:14.783Z,82.4
2017-03-17T05:34:15.096Z,81.45
2017-03-17T05:35:15.078Z,80.98
2017-03-17T05:36:15.064Z,83.07
2017-03-17T05:37:14.734Z,82.78
2017-03-17T05:38:15.041Z,81.74
2017-03-17T05:39:15.029Z,80.22
2017-03-17T05:40:14.699Z,81.17
2017-03-17T05:41:15.003Z,80.98
2017-03-17T05:42:14.992Z,79.55
2017-03-17T05:43:14.986Z,80.03
2017-03-17T05:44:14.969Z,80.32
2017-03-17T05:45:14.959Z,79.94
2017-03-17T05:46:14.947Z,79.74
2017-03-17T05:47:14.620Z,80.03
2017-03-17T05:48:14.920Z,80.41
2017-03-17T05:49:14.908Z,80.69
2017-03-17T05:50:14.585Z,80.51
2017-03-17T05:51:14.888Z,80.32
2017-03-17T05:52:14.874Z,79.36
2017-03-17T05:53:14.861Z,79.41
2017-03-17T05:54:14.859Z,79.6
2017-03-17T05:55:14.838Z,79.36
2017-03-17T05:56:14.827Z,79.22
2017-03-17T05:57:14.818Z,78.89
2017-03-17T05:58:14.807Z,79.31
2017-03-17T05:59:14.794Z,78.42
2017-03-17T06:00:14.786Z,78.55
2017-03-17T06:01:14.769Z,79.84
2017-03-17T06:02:14.759Z,79.69
2017-03-17T06:03:14.745Z,80.26
2017-03-17T06:04:14.737Z,79.88
2017-03-17T06:05:14.724Z,79.88
2017-03-17T06:06:14.713Z,79.41
2017-03-17T06:07:14.383Z,79.79
2017-03-17T06:08:14.689Z,80.35
2017-03-17T06:09:14.687Z,80.16
2017-03-17T06:10:14.666Z,79.41
2017-03-17T06:11:14.655Z,78.74
2017-03-17T06:12:14.328Z,77.98
2017-03-17T06:13:14.632Z,77.89
2017-03-17T06:14:14.618Z,77.12
2017-03-17T06:15:14.616Z,78.93
2017-03-17T06:16:14.596Z,78.93
2017-03-17T06:17:14.584Z,77.7
2017-03-17T06:18:14.575Z,78.45
2017-03-17T06:19:14.563Z,77.89
2017-03-17T06:20:14.553Z,77.41
2017-03-17T06:21:14.543Z,76.75
2017-03-17T06:22:14.527Z,77.6
2017-03-17T06:23:14.518Z,76.08
2017-03-17T06:24:14.506Z,74.66
2017-03-17T06:25:14.495Z,74.22
2017-03-17T06:26:14.485Z,73.74
2017-03-17T06:27:14.472Z,73.74
2017-03-17T06:28:14.459Z,72.89
2017-03-17T06:29:14.447Z,72.79
2017-03-17T06:30:14.438Z,74.31
2017-03-17T06:31:14.120Z,74.12
2017-03-17T06:32:14.416Z,73.46
2017-03-17T06:33:14.410Z,73.36
2017-03-17T06:34:14.396Z,73.93
2017-03-17T06:35:14.382Z,76.59
2017-03-17T06:36:14.370Z,74.31
2017-03-17T06:37:14.361Z,73.84
2017-03-17T06:38:14.349Z,73.27
2017-03-17T06:39:14.340Z,71.56
2017-03-17T06:40:14.328Z,70.42
2017-03-17T06:41:14.006Z,69.12
2017-03-17T06:42:14.309Z,68.74
2017-03-17T06:43:14.299Z,67.32
2017-03-17T06:44:14.287Z,66.65
2017-03-17T06:45:14.274Z,65.92
2017-03-17T06:46:14.263Z,65.89
2017-03-17T06:47:14.254Z,64.97
2017-03-17T06:48:13.931Z,65.73
2017-03-17T06:49:14.234Z,65.25
2017-03-17T06:50:14.222Z,62.02
2017-03-17T06:51:14.212Z,61.74
2017-03-17T06:52:14.202Z,60.88
2017-03-17T06:53:14.197Z,61.83
2017-03-17T06:54:14.178Z,60.21
2017-03-17T06:55:14.168Z,60.6
2017-03-17T06:56:14.161Z,60.88
2017-03-17T06:57:14.151Z,60.97
2017-03-17T06:58:14.179Z,61.83
2017-03-17T06:59:14.134Z,61.74
2017-03-17T07:00:13.805Z,61.74
2017-03-17T07:01:14.110Z,62.12
2017-03-17T07:02:14.098Z,61.93
2017-03-17T07:03:14.094Z,62.21
2017-03-17T07:04:14.081Z,62.4
2017-03-17T07:05:14.071Z,62.4
2017-03-17T07:06:14.060Z,63.92
2017-03-17T07:07:14.050Z,62.4
2017-03-17T07:08:14.038Z,62.02
2017-03-17T07:09:14.031Z,62.3
2017-03-17T07:10:14.019Z,62.4
2017-03-17T07:11:13.695Z,63.07
2017-03-17T07:12:13.686Z,62.49
2017-03-17T07:13:13.992Z,63.73
2017-03-17T07:14:13.979Z,64.02
2017-03-17T07:15:13.967Z,64.97
2017-03-17T07:16:13.958Z,65.06
2017-03-17T07:17:13.950Z,64.97
2017-03-17T07:18:13.941Z,64.87
2017-03-17T07:19:13.936Z,64.78
2017-03-17T07:20:13.919Z,64.59
2017-03-17T07:21:13.595Z,64.59
2017-03-17T07:22:13.585Z,64.21
2017-03-17T07:23:13.893Z,64.78
2017-03-17T07:24:13.882Z,64.5
2017-03-17T07:25:13.872Z,65.16
2017-03-17T07:26:13.863Z,65.64
2017-03-17T07:27:13.554Z,64.78
2017-03-17T07:28:13.839Z,64.59
2017-03-17T07:29:13.830Z,64.4
2017-03-17T07:30:13.820Z,64.59
2017-03-17T07:31:13.810Z,64.69
2017-03-17T07:32:13.802Z,64.31
2017-03-17T07:33:13.792Z,64.59
2017-03-17T07:34:13.784Z,64.69
2017-03-17T07:35:13.775Z,65.73
2017-03-17T07:36:13.761Z,66.2
2017-03-17T07:37:13.754Z,65.25
2017-03-17T07:38:13.745Z,64.78
2017-03-17T07:39:13.738Z,63.83
2017-03-17T07:40:13.731Z,63.83
2017-03-17T07:41:13.715Z,64.31
2017-03-17T07:42:13.704Z,64.78
2017-03-17T07:43:13.696Z,63.83
2017-03-17T07:44:13.689Z,64.05
2017-03-17T07:45:13.678Z,62.53
2017-03-17T07:46:13.665Z,62.34
2017-03-17T07:47:13.658Z,62.34
2017-03-17T07:48:13.648Z,62.15
2017-03-17T07:49:13.639Z,62.34
2017-03-17T07:50:13.630Z,61.48
2017-03-17T07:51:13.620Z,61.19
2017-03-17T07:52:13.609Z,61
2017-03-17T07:53:13.605Z,60.72
2017-03-17T07:54:13.599Z,61.04
2017-03-17T07:55:13.582Z,60.56
2017-03-17T07:56:13.580Z,60.18
2017-03-17T07:57:13.563Z,59.99
2017-03-17T07:58:13.560Z,61.04
2017-03-17T07:59:13.548Z,61.04
2017-03-17T08:00:13.226Z,60.18
2017-03-17T08:01:13.531Z,59.61
2017-03-17T08:02:13.523Z,59.06
2017-03-17T08:03:13.518Z,59.74
2017-03-17T08:04:13.191Z,60.11
2017-03-17T08:05:13.182Z,60.21
2017-03-17T08:06:13.488Z,59.45
2017-03-17T08:07:13.479Z,60.97
2017-03-17T08:08:13.472Z,59.67
2017-03-17T08:09:13.155Z,58.04
2017-03-17T08:10:13.456Z,57.19
2017-03-17T08:11:13.133Z,55
2017-03-17T08:12:13.440Z,54.36
2017-03-17T08:13:13.435Z,54.14
2017-03-17T08:14:13.428Z,53.31
2017-03-17T08:15:13.099Z,53.97
2017-03-17T08:16:13.411Z,54.17
2017-03-17T08:17:13.402Z,53.88
2017-03-17T08:18:13.080Z,53.41
2017-03-17T08:19:13.073Z,52.86
2017-03-17T08:20:13.380Z,51.71
2017-03-17T08:21:13.057Z,51.71
2017-03-17T08:22:13.050Z,51.23
2017-03-17T08:23:13.361Z,50.12
2017-03-17T08:24:13.036Z,50.88
2017-03-17T08:25:13.029Z,51.35
2017-03-17T08:26:13.020Z,51.45
2017-03-17T08:27:13.014Z,50.78
2017-03-17T08:28:13.325Z,50.78
2017-03-17T08:29:13.005Z,51.35
2017-03-17T08:30:12.993Z,50.88
2017-03-17T08:31:12.990Z,48.49
2017-03-17T08:32:13.323Z,47.82
2017-03-17T08:33:13.295Z,47.63
2017-03-17T08:34:13.287Z,48.02
2017-03-17T08:35:13.279Z,48.21
2017-03-17T08:36:13.273Z,47.73
2017-03-17T08:37:13.268Z,47.44
2017-03-17T08:38:13.266Z,45.72
2017-03-17T08:39:13.257Z,48.3
2017-03-17T08:40:13.250Z,48.21
2017-03-17T08:41:13.245Z,49.07
2017-03-17T08:42:12.922Z,47.92
2017-03-17T08:43:13.232Z,46.99
2017-03-17T08:44:13.228Z,47.18
2017-03-17T08:45:13.225Z,48.33
2017-03-17T08:46:13.215Z,48.13
2017-03-17T08:47:13.210Z,46.99
2017-03-17T08:48:13.207Z,47.56
2017-03-17T08:49:13.201Z,47.18
2017-03-17T08:50:13.191Z,45.94
2017-03-17T08:51:13.187Z,46.03
2017-03-17T08:52:13.183Z,48.23
2017-03-17T08:53:13.178Z,47.47
2017-03-17T08:54:13.171Z,45.56
2017-03-17T08:55:12.851Z,46.03
2017-03-17T08:56:13.184Z,46.51
2017-03-17T08:57:13.153Z,47.44
2017-03-17T08:58:12.837Z,47.44
2017-03-17T08:59:13.143Z,49.07
2017-03-17T09:00:13.136Z,48.88
2017-03-17T09:01:13.132Z,49.16
2017-03-17T09:02:13.126Z,49.16
2017-03-17T09:03:13.122Z,49.47
2017-03-17T09:04:13.116Z,48.52
2017-03-17T09:05:13.110Z,48.42
2017-03-17T09:06:13.102Z,48.52
2017-03-17T09:07:12.785Z,48.52
2017-03-17T09:08:13.091Z,49.09
2017-03-17T09:09:12.775Z,48.13
2017-03-17T09:10:12.767Z,49.21
2017-03-17T09:11:12.762Z,48.73
2017-03-17T09:12:12.756Z,47.23
2017-03-17T09:13:13.066Z,46.94
2017-03-17T09:14:12.747Z,45.79
2017-03-17T09:15:13.055Z,46.17
2017-03-17T09:16:12.741Z,45.89
2017-03-17T09:17:13.048Z,47.32
2017-03-17T09:18:12.727Z,47.03
2017-03-17T09:19:13.041Z,45.15
2017-03-17T09:20:13.032Z,45.34
2017-03-17T09:21:13.027Z,44.38
2017-03-17T09:22:13.027Z,44.29
2017-03-17T09:23:13.021Z,44.95
2017-03-17T09:24:13.017Z,44.95
2017-03-17T09:25:13.014Z,45.31
2017-03-17T09:26:13.010Z,45.51
2017-03-17T09:27:13.003Z,47.03
2017-03-17T09:28:12.999Z,47.03
2017-03-17T09:29:13.000Z,47.23
2017-03-17T09:30:12.991Z,48.66
2017-03-17T09:31:12.988Z,48.85
2017-03-17T09:32:12.985Z,49.52
2017-03-17T09:33:12.980Z,50.48
2017-03-17T09:34:12.977Z,49.43
2017-03-17T09:35:12.968Z,49.23
2017-03-17T09:36:12.963Z,48.66
2017-03-17T09:37:12.962Z,48.66
2017-03-17T09:38:12.960Z,48.47
2017-03-17T09:39:12.950Z,49.62
2017-03-17T09:40:12.948Z,50.67
2017-03-17T09:41:12.940Z,50.35
2017-03-17T09:42:12.939Z,50.74
2017-03-17T09:43:12.933Z,51.31
2017-03-17T09:44:12.928Z,52.17
2017-03-17T09:45:12.924Z,51.48
2017-03-17T09:46:12.920Z,51.09
2017-03-17T09:47:12.914Z,51.76
2017-03-17T09:48:12.910Z,52.43
2017-03-17T09:49:12.905Z,52.22
2017-03-17T09:50:12.901Z,52.31
2017-03-17T09:51:12.893Z,52.12
2017-03-17T09:52:12.891Z,52.12
2017-03-17T09:53:12.886Z,53.62
2017-03-17T09:54:12.879Z,53.53
2017-03-17T09:55:12.876Z,53.81
2017-03-17T09:56:12.875Z,54
2017-03-17T09:57:12.866Z,54.57
2017-03-17T09:58:12.865Z,54.7
2017-03-17T09:59:12.856Z,52.88
2017-03-17T10:00:12.846Z,53.36
2017-03-17T10:01:12.843Z,54.03
2017-03-17T10:02:12.838Z,53.74
2017-03-17T10:03:12.837Z,54.03
2017-03-17T10:04:12.833Z,54.13
2017-03-17T10:05:12.820Z,53.74
2017-03-17T10:06:12.817Z,52.98
2017-03-17T10:07:12.809Z,53.93
2017-03-17T10:08:12.804Z,54.6
2017-03-17T10:09:12.803Z,55.46
2017-03-17T10:10:12.482Z,54.79
2017-03-17T10:11:12.816Z,54.86
2017-03-17T10:12:12.785Z,55.43
2017-03-17T10:13:12.779Z,55.91
2017-03-17T10:14:12.772Z,56.38
2017-03-17T10:15:12.766Z,56.58
2017-03-17T10:16:12.445Z,56.58
2017-03-17T10:17:12.760Z,57.63
2017-03-17T10:18:12.753Z,57.43
2017-03-17T10:19:12.745Z,57.24
2017-03-17T10:20:12.742Z,56.96
2017-03-17T10:21:12.733Z,57.82
2017-03-17T10:22:12.724Z,58.29
2017-03-17T10:23:12.719Z,58.39
2017-03-17T10:24:12.717Z,58.29
2017-03-17T10:25:12.709Z,58.39
2017-03-17T10:26:12.705Z,59.12
2017-03-17T10:27:12.697Z,59.51
2017-03-17T10:28:12.693Z,60.46
2017-03-17T10:29:12.690Z,60.65
2017-03-17T10:30:12.678Z,60.36
2017-03-17T10:31:12.674Z,61.13
2017-03-17T10:32:12.667Z,62.46
2017-03-17T10:33:12.659Z,62.65
2017-03-17T10:34:12.649Z,63.23
2017-03-17T10:35:12.648Z,62.08
2017-03-17T10:36:12.331Z,61.13
2017-03-17T10:37:12.635Z,62.46
2017-03-17T10:38:12.629Z,62.65
2017-03-17T10:39:12.655Z,63.13
2017-03-17T10:40:12.615Z,63.04
2017-03-17T10:41:12.607Z,64.28
2017-03-17T10:42:12.600Z,63.42
2017-03-17T10:43:12.595Z,63.51
2017-03-17T10:44:12.275Z,64.47
2017-03-17T10:45:12.583Z,63.8
2017-03-17T10:46:12.575Z,63.8
2017-03-17T10:47:12.640Z,63.7
2017-03-17T10:48:12.564Z,63.99
2017-03-17T10:49:12.556Z,64.65
2017-03-17T10:50:12.937Z,65.33
2017-03-17T10:51:12.678Z,65.13
2017-03-17T10:52:12.542Z,64.75
2017-03-17T10:53:12.218Z,64.94
2017-03-17T10:54:12.994Z,65.04
2017-03-17T10:55:12.955Z,65.42
2017-03-17T10:56:12.937Z,65.23
2017-03-17T10:57:12.507Z,64.56
2017-03-17T10:58:12.499Z,65.33
2017-03-17T10:59:12.496Z,65.04
2017-03-17T11:00:12.486Z,63.16
2017-03-17T11:01:12.479Z,62.97
2017-03-17T11:02:12.474Z,63.73
2017-03-17T11:03:12.470Z,63.54
2017-03-17T11:04:12.143Z,63.07
2017-03-17T11:05:12.455Z,63.07
2017-03-17T11:06:12.448Z,63.07
2017-03-17T11:07:12.482Z,63.26
2017-03-17T11:08:12.440Z,62.49
2017-03-17T11:09:12.429Z,61.54
2017-03-17T11:10:12.423Z,63.16
2017-03-17T11:11:12.416Z,62.34
2017-03-17T11:12:12.410Z,61.47
2017-03-17T11:13:12.408Z,62.43
2017-03-17T11:14:12.399Z,61.66
2017-03-17T11:15:12.391Z,62.05
2017-03-17T11:16:12.072Z,62.43
2017-03-17T11:17:12.381Z,61.29
2017-03-17T11:18:12.376Z,61.57
2017-03-17T11:19:12.371Z,62.05
2017-03-17T11:20:12.363Z,63.1
2017-03-17T11:21:12.355Z,61.29
2017-03-17T11:22:12.350Z,61.57
2017-03-17T11:23:12.349Z,61.76
2017-03-17T11:24:12.369Z,61.38
2017-03-17T11:25:12.332Z,61.66
2017-03-17T11:26:12.328Z,61
2017-03-17T11:27:12.321Z,62.24
2017-03-17T11:28:12.003Z,62.24
2017-03-17T11:29:12.310Z,62.43
2017-03-17T11:30:12.306Z,60.93
2017-03-17T11:31:12.299Z,62.55
2017-03-17T11:32:12.295Z,61.51
2017-03-17T11:33:12.290Z,60.36
2017-03-17T11:34:12.282Z,59.63
2017-03-17T11:35:12.278Z,59.78
2017-03-17T11:36:12.271Z,59.59
2017-03-17T11:37:12.269Z,60.46
2017-03-17T11:38:12.262Z,60.07
2017-03-17T11:39:12.261Z,60.64
2017-03-17T11:40:12.251Z,60.58
2017-03-17T11:41:12.246Z,59.88
2017-03-17T11:42:12.240Z,59.02
2017-03-17T11:43:12.238Z,59.5
2017-03-17T11:44:12.227Z,59.5
2017-03-17T11:45:11.909Z,59.98
2017-03-17T11:46:12.220Z,60.14
2017-03-17T11:47:12.214Z,60.33
2017-03-17T11:48:12.240Z,60.52
2017-03-17T11:49:12.200Z,61.19
2017-03-17T11:50:12.198Z,61.29
2017-03-17T11:51:12.192Z,60.9
2017-03-17T11:52:12.186Z,61.66
2017-03-17T11:53:12.181Z,60.42
2017-03-17T11:54:11.862Z,59.85
2017-03-17T11:55:12.173Z,60.9
2017-03-17T11:56:12.167Z,61.1
2017-03-17T11:57:12.157Z,61.19
2017-03-17T11:58:12.153Z,60.9
2017-03-17T11:59:12.150Z,60.33
2017-03-17T12:00:12.148Z,61.19
2017-03-17T12:01:12.137Z,61.19
2017-03-17T12:02:12.138Z,61.63
2017-03-17T12:03:12.130Z,62.21
2017-03-17T12:04:12.128Z,63.07
2017-03-17T12:05:12.118Z,63.35
2017-03-17T12:06:12.112Z,64.47
2017-03-17T12:07:12.104Z,65.13
2017-03-17T12:08:12.111Z,66.18
2017-03-17T12:09:12.097Z,66.47
2017-03-17T12:10:11.772Z,67.52
2017-03-17T12:11:12.081Z,67.8
2017-03-17T12:12:12.074Z,67.33
2017-03-17T12:13:12.069Z,68.95
2017-03-17T12:14:12.066Z,69.71
2017-03-17T12:15:12.055Z,69.62
2017-03-17T12:16:12.046Z,68.28
2017-03-17T12:17:12.041Z,67.61
2017-03-17T12:18:12.036Z,68.09
2017-03-17T12:19:12.026Z,68.85
2017-03-17T12:20:12.023Z,69.52
2017-03-17T12:21:12.016Z,69.33
2017-03-17T12:22:11.694Z,69.14
2017-03-17T12:23:12.001Z,69.77
2017-03-17T12:24:11.994Z,69.39
2017-03-17T12:25:11.987Z,69.77
2017-03-17T12:26:11.981Z,69.68
2017-03-17T12:27:11.974Z,69.58
2017-03-17T12:28:11.965Z,70.34
2017-03-17T12:29:11.962Z,70.25
2017-03-17T12:30:11.953Z,69.68
2017-03-17T12:31:11.943Z,69.96
2017-03-17T12:32:11.937Z,69.58
2017-03-17T12:33:11.933Z,69.96
2017-03-17T12:34:11.927Z,69.77
2017-03-17T12:35:11.916Z,69.58
2017-03-17T12:36:11.908Z,69.87
2017-03-17T12:37:11.906Z,69.68
2017-03-17T12:38:11.898Z,69.39
2017-03-17T12:39:11.893Z,69.43
2017-03-17T12:40:11.880Z,70.76
2017-03-17T12:41:11.878Z,70.38
2017-03-17T12:42:11.552Z,69.33
2017-03-17T12:43:11.860Z,70.47
2017-03-17T12:44:11.852Z,68.57
2017-03-17T12:45:11.849Z,68.66
2017-03-17T12:46:11.839Z,66.85
2017-03-17T12:47:11.833Z,67.04
2017-03-17T12:48:11.822Z,67.52
2017-03-17T12:49:11.815Z,67.04
2017-03-17T12:50:11.810Z,67.52
2017-03-17T12:51:11.803Z,67.14
2017-03-17T12:52:11.798Z,67.23
2017-03-17T12:53:11.790Z,67.23
2017-03-17T12:54:11.782Z,66.66
2017-03-17T12:55:11.779Z,67.33